sensor_id;sensor_type;location;lat;lon;timestamp;P1;durP1;ratioP1;P2;durP2;ratioP2
1140;SDS011;559;48.628;8.924;2023-02-21T00:02:05;157.88;;;151.65;;
1140;SDS011;559;48.628;8.924;2023-02-21T00:04:49;149.43;;;143.70;;
1140;SDS011;559;48.628;8.924;2023-02-21T00:07:33;150.90;;;144.98;;
1140;SDS011;559;48.628;8.924;2023-02-21T00:10:17;145.93;;;140.18;;
1140;SDS011;559;48.628;8.924;2023-02-21T00:13:02;159.63;;;153.25;;
1140;SDS011;559;48.628;8.924;2023-02-21T00:15:46;144.73;;;138.88;;
1140;SDS011;559;48.628;8.924;2023-02-21T00:18:32;140.55;;;134.85;;
1140;SDS011;559;48.628;8.924;2023-02-21T00:21:16;144.40;;;138.45;;
1140;SDS011;559;48.628;8.924;2023-02-21T00:24:00;148.63;;;142.52;;
1140;SDS011;559;48.628;8.924;2023-02-21T00:26:44;144.45;;;138.55;;
1140;SDS011;559;48.628;8.924;2023-02-21T00:29:29;147.93;;;141.73;;
1140;SDS011;559;48.628;8.924;2023-02-21T00:32:13;144.68;;;138.30;;
1140;SDS011;559;48.628;8.924;2023-02-21T00:34:57;142.50;;;136.52;;
1140;SDS011;559;48.628;8.924;2023-02-21T00:37:41;150.48;;;143.85;;
1140;SDS011;559;48.628;8.924;2023-02-21T00:40:25;148.52;;;142.45;;
1140;SDS011;559;48.628;8.924;2023-02-21T00:43:09;149.27;;;143.38;;
1140;SDS011;559;48.628;8.924;2023-02-21T00:45:54;148.57;;;142.68;;
1140;SDS011;559;48.628;8.924;2023-02-21T00:48:38;145.18;;;139.30;;
1140;SDS011;559;48.628;8.924;2023-02-21T00:51:22;147.02;;;141.13;;
1140;SDS011;559;48.628;8.924;2023-02-21T00:54:06;133.45;;;128.13;;
1140;SDS011;559;48.628;8.924;2023-02-21T00:56:50;146.07;;;140.27;;
1140;SDS011;559;48.628;8.924;2023-02-21T00:59:34;145.63;;;139.73;;
1140;SDS011;559;48.628;8.924;2023-02-21T01:02:19;145.30;;;139.45;;
1140;SDS011;559;48.628;8.924;2023-02-21T01:05:03;143.73;;;138.02;;
1140;SDS011;559;48.628;8.924;2023-02-21T01:07:48;145.93;;;139.80;;
1140;SDS011;559;48.628;8.924;2023-02-21T01:10:32;152.85;;;146.65;;
1140;SDS011;559;48.628;8.924;2023-02-21T01:13:16;152.23;;;145.75;;
1140;SDS011;559;48.628;8.924;2023-02-21T01:16:00;140.05;;;134.07;;
1140;SDS011;559;48.628;8.924;2023-02-21T01:18:45;141.90;;;135.98;;
1140;SDS011;559;48.628;8.924;2023-02-21T01:21:29;142.40;;;136.60;;
1140;SDS011;559;48.628;8.924;2023-02-21T01:24:13;143.32;;;137.57;;
1140;SDS011;559;48.628;8.924;2023-02-21T01:26:57;138.60;;;132.77;;
1140;SDS011;559;48.628;8.924;2023-02-21T01:29:41;141.63;;;135.65;;
1140;SDS011;559;48.628;8.924;2023-02-21T01:32:25;150.88;;;144.57;;
1140;SDS011;559;48.628;8.924;2023-02-21T01:35:11;151.38;;;144.75;;
1140;SDS011;559;48.628;8.924;2023-02-21T01:37:55;140.98;;;134.98;;
1140;SDS011;559;48.628;8.924;2023-02-21T01:40:39;149.80;;;142.90;;
1140;SDS011;559;48.628;8.924;2023-02-21T01:43:23;149.25;;;142.93;;
1140;SDS011;559;48.628;8.924;2023-02-21T01:46:08;147.15;;;140.85;;
1140;SDS011;559;48.628;8.924;2023-02-21T01:48:53;144.32;;;138.23;;
1140;SDS011;559;48.628;8.924;2023-02-21T01:51:40;146.45;;;140.15;;
1140;SDS011;559;48.628;8.924;2023-02-21T01:54:26;149.70;;;143.60;;
1140;SDS011;559;48.628;8.924;2023-02-21T01:57:13;145.35;;;139.07;;
1140;SDS011;559;48.628;8.924;2023-02-21T01:59:58;136.73;;;130.80;;
1140;SDS011;559;48.628;8.924;2023-02-21T02:02:45;141.13;;;135.02;;
1140;SDS011;559;48.628;8.924;2023-02-21T02:05:33;150.38;;;143.88;;
1140;SDS011;559;48.628;8.924;2023-02-21T02:08:19;146.63;;;140.43;;
1140;SDS011;559;48.628;8.924;2023-02-21T02:11:06;151.75;;;145.45;;
1140;SDS011;559;48.628;8.924;2023-02-21T02:13:58;144.68;;;138.48;;
1140;SDS011;559;48.628;8.924;2023-02-21T02:16:35;145.23;;;139.13;;
1140;SDS011;559;48.628;8.924;2023-02-21T02:19:13;136.75;;;131.00;;
1140;SDS011;559;48.628;8.924;2023-02-21T02:24:59;145.57;;;139.50;;
1140;SDS011;559;48.628;8.924;2023-02-21T02:27:40;143.93;;;137.85;;
1140;SDS011;559;48.628;8.924;2023-02-21T02:30:28;142.38;;;136.27;;
1140;SDS011;559;48.628;8.924;2023-02-21T02:33:24;141.82;;;135.88;;
1140;SDS011;559;48.628;8.924;2023-02-21T02:36:02;132.02;;;126.22;;
1140;SDS011;559;48.628;8.924;2023-02-21T02:38:32;134.98;;;129.18;;
1140;SDS011;559;48.628;8.924;2023-02-21T02:41:03;135.50;;;129.80;;
1140;SDS011;559;48.628;8.924;2023-02-21T02:43:32;132.93;;;127.32;;
1140;SDS011;559;48.628;8.924;2023-02-21T02:46:01;135.40;;;129.60;;
1140;SDS011;559;48.628;8.924;2023-02-21T02:48:34;135.10;;;129.48;;
1140;SDS011;559;48.628;8.924;2023-02-21T02:51:05;135.15;;;129.43;;
1140;SDS011;559;48.628;8.924;2023-02-21T02:53:33;135.73;;;129.88;;
1140;SDS011;559;48.628;8.924;2023-02-21T02:56:01;135.07;;;129.02;;
1140;SDS011;559;48.628;8.924;2023-02-21T02:58:30;132.27;;;126.47;;
1140;SDS011;559;48.628;8.924;2023-02-21T03:01:07;137.82;;;131.98;;
1140;SDS011;559;48.628;8.924;2023-02-21T03:03:54;133.70;;;127.82;;
1140;SDS011;559;48.628;8.924;2023-02-21T03:06:32;130.15;;;123.35;;
1140;SDS011;559;48.628;8.924;2023-02-21T03:09:02;131.75;;;126.15;;
1140;SDS011;559;48.628;8.924;2023-02-21T03:11:34;132.98;;;127.25;;
1140;SDS011;559;48.628;8.924;2023-02-21T03:14:04;136.82;;;131.02;;
1140;SDS011;559;48.628;8.924;2023-02-21T03:16:33;136.05;;;130.20;;
1140;SDS011;559;48.628;8.924;2023-02-21T03:19:02;139.43;;;133.45;;
1140;SDS011;559;48.628;8.924;2023-02-21T03:21:35;138.23;;;132.32;;
1140;SDS011;559;48.628;8.924;2023-02-21T03:24:04;129.73;;;124.22;;
1140;SDS011;559;48.628;8.924;2023-02-21T03:26:32;132.93;;;127.25;;
1140;SDS011;559;48.628;8.924;2023-02-21T03:29:01;143.75;;;137.60;;
1140;SDS011;559;48.628;8.924;2023-02-21T03:31:29;133.50;;;127.75;;
1140;SDS011;559;48.628;8.924;2023-02-21T03:33:56;134.60;;;128.60;;
1140;SDS011;559;48.628;8.924;2023-02-21T03:36:23;130.15;;;124.55;;
1140;SDS011;559;48.628;8.924;2023-02-21T03:38:51;129.52;;;123.93;;
1140;SDS011;559;48.628;8.924;2023-02-21T03:41:17;129.43;;;123.93;;
1140;SDS011;559;48.628;8.924;2023-02-21T03:43:44;127.13;;;121.53;;
1140;SDS011;559;48.628;8.924;2023-02-21T03:46:10;134.93;;;129.05;;
1140;SDS011;559;48.628;8.924;2023-02-21T03:48:37;134.30;;;128.70;;
1140;SDS011;559;48.628;8.924;2023-02-21T03:51:03;126.45;;;121.05;;
1140;SDS011;559;48.628;8.924;2023-02-21T03:53:30;124.82;;;119.50;;
1140;SDS011;559;48.628;8.924;2023-02-21T03:55:58;123.68;;;118.38;;
1140;SDS011;559;48.628;8.924;2023-02-21T03:58:24;126.53;;;121.00;;
1140;SDS011;559;48.628;8.924;2023-02-21T04:00:51;125.47;;;119.78;;
1140;SDS011;559;48.628;8.924;2023-02-21T04:03:17;127.30;;;121.85;;
1140;SDS011;559;48.628;8.924;2023-02-21T04:05:44;132.95;;;127.32;;
1140;SDS011;559;48.628;8.924;2023-02-21T04:08:11;136.70;;;130.75;;
1140;SDS011;559;48.628;8.924;2023-02-21T04:10:37;128.98;;;123.05;;
1140;SDS011;559;48.628;8.924;2023-02-21T04:13:05;124.00;;;118.00;;
1140;SDS011;559;48.628;8.924;2023-02-21T04:15:33;124.53;;;118.82;;
1140;SDS011;559;48.628;8.924;2023-02-21T04:17:59;128.65;;;122.65;;
1140;SDS011;559;48.628;8.924;2023-02-21T04:20:26;124.03;;;118.38;;
1140;SDS011;559;48.628;8.924;2023-02-21T04:22:52;128.65;;;122.95;;
1140;SDS011;559;48.628;8.924;2023-02-21T04:25:19;126.60;;;121.05;;
1140;SDS011;559;48.628;8.924;2023-02-21T04:27:45;127.28;;;121.85;;
1140;SDS011;559;48.628;8.924;2023-02-21T04:30:13;123.35;;;117.72;;
1140;SDS011;559;48.628;8.924;2023-02-21T04:32:40;124.68;;;119.03;;
1140;SDS011;559;48.628;8.924;2023-02-21T04:35:06;125.22;;;119.55;;
1140;SDS011;559;48.628;8.924;2023-02-21T04:37:33;131.32;;;125.53;;
1140;SDS011;559;48.628;8.924;2023-02-21T04:39:59;125.47;;;119.57;;
1140;SDS011;559;48.628;8.924;2023-02-21T04:42:26;125.75;;;120.05;;
1140;SDS011;559;48.628;8.924;2023-02-21T04:44:53;121.97;;;116.25;;
1140;SDS011;559;48.628;8.924;2023-02-21T04:47:21;120.70;;;115.20;;
1140;SDS011;559;48.628;8.924;2023-02-21T04:49:47;122.63;;;116.97;;
1140;SDS011;559;48.628;8.924;2023-02-21T04:52:15;131.50;;;125.63;;
1140;SDS011;559;48.628;8.924;2023-02-21T04:54:44;118.35;;;112.78;;
1140;SDS011;559;48.628;8.924;2023-02-21T04:57:10;122.25;;;116.75;;
1140;SDS011;559;48.628;8.924;2023-02-21T04:59:37;111.10;;;105.85;;
1140;SDS011;559;48.628;8.924;2023-02-21T05:02:03;109.13;;;104.10;;
1140;SDS011;559;48.628;8.924;2023-02-21T05:04:31;116.32;;;111.07;;
1140;SDS011;559;48.628;8.924;2023-02-21T05:06:58;114.55;;;109.15;;
1140;SDS011;559;48.628;8.924;2023-02-21T05:09:24;110.72;;;105.40;;
1140;SDS011;559;48.628;8.924;2023-02-21T05:11:51;117.57;;;112.28;;
1140;SDS011;559;48.628;8.924;2023-02-21T05:14:17;118.03;;;112.63;;
1140;SDS011;559;48.628;8.924;2023-02-21T05:16:44;114.22;;;108.75;;
1140;SDS011;559;48.628;8.924;2023-02-21T05:19:11;120.53;;;114.95;;
1140;SDS011;559;48.628;8.924;2023-02-21T05:21:39;124.68;;;118.57;;
1140;SDS011;559;48.628;8.924;2023-02-21T05:24:05;127.85;;;120.75;;
1140;SDS011;559;48.628;8.924;2023-02-21T05:26:33;141.57;;;132.40;;
1140;SDS011;559;48.628;8.924;2023-02-21T05:29:01;141.00;;;132.35;;
1140;SDS011;559;48.628;8.924;2023-02-21T05:31:28;140.35;;;131.40;;
1140;SDS011;559;48.628;8.924;2023-02-21T05:33:55;133.27;;;124.78;;
1140;SDS011;559;48.628;8.924;2023-02-21T05:36:21;134.45;;;126.20;;
1140;SDS011;559;48.628;8.924;2023-02-21T05:38:51;129.75;;;122.22;;
1140;SDS011;559;48.628;8.924;2023-02-21T05:41:19;127.30;;;119.95;;
1140;SDS011;559;48.628;8.924;2023-02-21T05:43:46;120.53;;;113.57;;
1140;SDS011;559;48.628;8.924;2023-02-21T05:46:17;122.88;;;116.00;;
1140;SDS011;559;48.628;8.924;2023-02-21T05:48:45;119.30;;;112.30;;
1140;SDS011;559;48.628;8.924;2023-02-21T05:51:12;118.82;;;112.93;;
1140;SDS011;559;48.628;8.924;2023-02-21T05:53:39;116.53;;;110.53;;
1140;SDS011;559;48.628;8.924;2023-02-21T05:56:07;120.22;;;114.30;;
1140;SDS011;559;48.628;8.924;2023-02-21T05:58:33;112.32;;;106.72;;
1140;SDS011;559;48.628;8.924;2023-02-21T06:01:00;114.50;;;108.80;;
1140;SDS011;559;48.628;8.924;2023-02-21T06:03:26;114.45;;;108.65;;
1140;SDS011;559;48.628;8.924;2023-02-21T06:05:53;122.35;;;116.55;;
1140;SDS011;559;48.628;8.924;2023-02-21T06:08:19;124.40;;;117.78;;
1140;SDS011;559;48.628;8.924;2023-02-21T06:10:46;127.03;;;120.88;;
1140;SDS011;559;48.628;8.924;2023-02-21T06:13:14;122.13;;;115.93;;
1140;SDS011;559;48.628;8.924;2023-02-21T06:15:40;118.55;;;112.75;;
1140;SDS011;559;48.628;8.924;2023-02-21T06:18:07;117.63;;;111.57;;
1140;SDS011;559;48.628;8.924;2023-02-21T06:20:33;107.05;;;101.43;;
1140;SDS011;559;48.628;8.924;2023-02-21T06:23:00;120.10;;;114.22;;
1140;SDS011;559;48.628;8.924;2023-02-21T06:25:26;113.80;;;108.00;;
1140;SDS011;559;48.628;8.924;2023-02-21T06:27:53;106.68;;;101.40;;
1140;SDS011;559;48.628;8.924;2023-02-21T06:30:20;106.57;;;101.18;;
1140;SDS011;559;48.628;8.924;2023-02-21T06:32:47;106.68;;;101.43;;
1140;SDS011;559;48.628;8.924;2023-02-21T06:35:13;117.78;;;109.03;;
1140;SDS011;559;48.628;8.924;2023-02-21T06:37:40;114.85;;;109.03;;
1140;SDS011;559;48.628;8.924;2023-02-21T06:40:07;113.60;;;107.90;;
1140;SDS011;559;48.628;8.924;2023-02-21T06:42:33;114.63;;;109.13;;
1140;SDS011;559;48.628;8.924;2023-02-21T06:45:01;105.90;;;100.80;;
1140;SDS011;559;48.628;8.924;2023-02-21T06:47:29;111.25;;;105.05;;
1140;SDS011;559;48.628;8.924;2023-02-21T06:49:55;114.70;;;109.00;;
1140;SDS011;559;48.628;8.924;2023-02-21T06:52:22;116.13;;;110.43;;
1140;SDS011;559;48.628;8.924;2023-02-21T06:54:48;120.32;;;114.82;;
1140;SDS011;559;48.628;8.924;2023-02-21T06:57:15;116.10;;;110.50;;
1140;SDS011;559;48.628;8.924;2023-02-21T06:59:41;116.60;;;110.80;;
1140;SDS011;559;48.628;8.924;2023-02-21T07:02:08;113.82;;;107.57;;
1140;SDS011;559;48.628;8.924;2023-02-21T07:04:43;108.50;;;103.25;;
1140;SDS011;559;48.628;8.924;2023-02-21T07:07:10;110.72;;;104.40;;
1140;SDS011;559;48.628;8.924;2023-02-21T07:09:36;111.97;;;105.88;;
1140;SDS011;559;48.628;8.924;2023-02-21T07:12:03;111.35;;;105.32;;
1140;SDS011;559;48.628;8.924;2023-02-21T07:14:29;108.03;;;102.63;;
1140;SDS011;559;48.628;8.924;2023-02-21T07:16:56;104.85;;;99.13;;
1140;SDS011;559;48.628;8.924;2023-02-21T07:19:22;118.68;;;108.68;;
1140;SDS011;559;48.628;8.924;2023-02-21T07:21:50;104.85;;;99.07;;
1140;SDS011;559;48.628;8.924;2023-02-21T07:24:17;104.30;;;99.18;;
1140;SDS011;559;48.628;8.924;2023-02-21T07:26:43;105.03;;;100.05;;
1140;SDS011;559;48.628;8.924;2023-02-21T07:29:10;106.85;;;101.47;;
1140;SDS011;559;48.628;8.924;2023-02-21T07:31:36;106.93;;;101.75;;
1140;SDS011;559;48.628;8.924;2023-02-21T07:34:03;105.82;;;100.68;;
1140;SDS011;559;48.628;8.924;2023-02-21T07:36:29;106.57;;;101.18;;
1140;SDS011;559;48.628;8.924;2023-02-21T07:38:57;100.47;;;95.28;;
1140;SDS011;559;48.628;8.924;2023-02-21T07:41:24;105.50;;;100.10;;
1140;SDS011;559;48.628;8.924;2023-02-21T07:43:50;108.85;;;103.30;;
1140;SDS011;559;48.628;8.924;2023-02-21T07:46:17;111.53;;;105.53;;
1140;SDS011;559;48.628;8.924;2023-02-21T07:48:43;108.55;;;103.05;;
1140;SDS011;559;48.628;8.924;2023-02-21T07:51:10;101.40;;;96.25;;
1140;SDS011;559;48.628;8.924;2023-02-21T07:53:37;102.75;;;97.43;;
1140;SDS011;559;48.628;8.924;2023-02-21T07:56:05;105.82;;;100.45;;
1140;SDS011;559;48.628;8.924;2023-02-21T07:58:31;101.65;;;96.85;;
1140;SDS011;559;48.628;8.924;2023-02-21T08:01:01;103.40;;;98.28;;
1140;SDS011;559;48.628;8.924;2023-02-21T08:03:28;106.53;;;101.72;;
1140;SDS011;559;48.628;8.924;2023-02-21T08:05:54;109.50;;;104.60;;
1140;SDS011;559;48.628;8.924;2023-02-21T08:08:21;103.05;;;98.45;;
1140;SDS011;559;48.628;8.924;2023-02-21T08:10:48;104.30;;;99.35;;
1140;SDS011;559;48.628;8.924;2023-02-21T08:13:16;105.82;;;101.25;;
1140;SDS011;559;48.628;8.924;2023-02-21T08:15:42;171.25;;;114.50;;
1140;SDS011;559;48.628;8.924;2023-02-21T08:18:13;111.75;;;104.50;;
1140;SDS011;559;48.628;8.924;2023-02-21T08:20:43;114.53;;;109.10;;
1140;SDS011;559;48.628;8.924;2023-02-21T08:23:09;110.53;;;105.93;;
1140;SDS011;559;48.628;8.924;2023-02-21T08:25:36;110.68;;;106.47;;
1140;SDS011;559;48.628;8.924;2023-02-21T08:28:02;111.10;;;106.80;;
1140;SDS011;559;48.628;8.924;2023-02-21T08:30:30;113.32;;;108.82;;
1140;SDS011;559;48.628;8.924;2023-02-21T08:32:57;109.85;;;104.88;;
1140;SDS011;559;48.628;8.924;2023-02-21T08:35:23;107.82;;;103.60;;
1140;SDS011;559;48.628;8.924;2023-02-21T08:37:50;109.10;;;104.70;;
1140;SDS011;559;48.628;8.924;2023-02-21T08:40:21;116.35;;;112.05;;
1140;SDS011;559;48.628;8.924;2023-02-21T08:42:48;111.93;;;107.68;;
1140;SDS011;559;48.628;8.924;2023-02-21T08:45:15;111.75;;;107.65;;
1140;SDS011;559;48.628;8.924;2023-02-21T08:47:44;112.53;;;108.45;;
1140;SDS011;559;48.628;8.924;2023-02-21T08:50:11;117.13;;;112.75;;
1140;SDS011;559;48.628;8.924;2023-02-21T08:52:37;120.40;;;115.82;;
1140;SDS011;559;48.628;8.924;2023-02-21T08:55:04;115.50;;;111.25;;
1140;SDS011;559;48.628;8.924;2023-02-21T08:57:31;119.75;;;115.20;;
1140;SDS011;559;48.628;8.924;2023-02-21T08:59:59;113.80;;;109.63;;
1140;SDS011;559;48.628;8.924;2023-02-21T09:02:26;115.88;;;111.70;;
1140;SDS011;559;48.628;8.924;2023-02-21T09:04:55;114.30;;;110.50;;
1140;SDS011;559;48.628;8.924;2023-02-21T09:07:23;109.03;;;104.97;;
1140;SDS011;559;48.628;8.924;2023-02-21T09:09:50;105.60;;;101.82;;
1140;SDS011;559;48.628;8.924;2023-02-21T09:12:17;104.60;;;101.03;;
1140;SDS011;559;48.628;8.924;2023-02-21T09:14:43;104.43;;;100.72;;
1140;SDS011;559;48.628;8.924;2023-02-21T09:17:11;98.40;;;95.00;;
1140;SDS011;559;48.628;8.924;2023-02-21T09:19:38;104.53;;;100.53;;
1140;SDS011;559;48.628;8.924;2023-02-21T09:22:07;97.07;;;93.45;;
1140;SDS011;559;48.628;8.924;2023-02-21T09:24:34;96.15;;;93.15;;
1140;SDS011;559;48.628;8.924;2023-02-21T09:27:00;89.72;;;86.75;;
1140;SDS011;559;48.628;8.924;2023-02-21T09:29:28;82.80;;;80.05;;
1140;SDS011;559;48.628;8.924;2023-02-21T09:31:54;71.93;;;69.63;;
1140;SDS011;559;48.628;8.924;2023-02-21T09:34:21;65.22;;;63.22;;
1140;SDS011;559;48.628;8.924;2023-02-21T09:36:48;65.50;;;63.05;;
1140;SDS011;559;48.628;8.924;2023-02-21T09:39:16;62.97;;;60.38;;
1140;SDS011;559;48.628;8.924;2023-02-21T09:41:43;53.42;;;51.65;;
1140;SDS011;559;48.628;8.924;2023-02-21T09:44:11;54.28;;;52.33;;
1140;SDS011;559;48.628;8.924;2023-02-21T09:46:41;43.63;;;40.97;;
1140;SDS011;559;48.628;8.924;2023-02-21T09:49:10;33.72;;;32.63;;
1140;SDS011;559;48.628;8.924;2023-02-21T09:51:39;33.90;;;31.35;;
1140;SDS011;559;48.628;8.924;2023-02-21T09:54:10;18.30;;;17.52;;
1140;SDS011;559;48.628;8.924;2023-02-21T09:56:41;8.07;;;7.70;;
1140;SDS011;559;48.628;8.924;2023-02-21T09:59:08;4.78;;;4.38;;
1140;SDS011;559;48.628;8.924;2023-02-21T10:01:38;6.32;;;5.70;;
1140;SDS011;559;48.628;8.924;2023-02-21T10:04:12;6.25;;;5.15;;
1140;SDS011;559;48.628;8.924;2023-02-21T10:06:43;6.75;;;3.90;;
1140;SDS011;559;48.628;8.924;2023-02-21T10:09:17;4.78;;;4.45;;
1140;SDS011;559;48.628;8.924;2023-02-21T10:11:54;4.22;;;2.92;;
1140;SDS011;559;48.628;8.924;2023-02-21T10:14:26;3.17;;;2.97;;
1140;SDS011;559;48.628;8.924;2023-02-21T10:16:58;2.00;;;1.73;;
1140;SDS011;559;48.628;8.924;2023-02-21T10:19:29;8.97;;;2.50;;
1140;SDS011;559;48.628;8.924;2023-02-21T10:21:57;6.55;;;2.38;;
1140;SDS011;559;48.628;8.924;2023-02-21T10:24:26;61.57;;;14.57;;
1140;SDS011;559;48.628;8.924;2023-02-21T10:26:56;92.20;;;22.33;;
1140;SDS011;559;48.628;8.924;2023-02-21T10:29:34;5.23;;;2.57;;
1140;SDS011;559;48.628;8.924;2023-02-21T10:32:04;1.73;;;1.30;;
1140;SDS011;559;48.628;8.924;2023-02-21T10:34:31;2.28;;;1.30;;
1140;SDS011;559;48.628;8.924;2023-02-21T10:37:01;2.10;;;1.20;;
1140;SDS011;559;48.628;8.924;2023-02-21T10:39:30;2.60;;;1.20;;
1140;SDS011;559;48.628;8.924;2023-02-21T10:42:01;1.30;;;1.03;;
1140;SDS011;559;48.628;8.924;2023-02-21T10:44:28;10.53;;;2.00;;
1140;SDS011;559;48.628;8.924;2023-02-21T10:46:58;3.10;;;0.70;;
1140;SDS011;559;48.628;8.924;2023-02-21T10:49:27;2.30;;;0.80;;
1140;SDS011;559;48.628;8.924;2023-02-21T10:52:02;6.87;;;1.93;;
1140;SDS011;559;48.628;8.924;2023-02-21T10:54:31;1.33;;;0.70;;
1140;SDS011;559;48.628;8.924;2023-02-21T10:56:57;1.00;;;0.77;;
1140;SDS011;559;48.628;8.924;2023-02-21T10:59:27;2.60;;;0.70;;
1140;SDS011;559;48.628;8.924;2023-02-21T11:01:54;1.00;;;0.70;;
1140;SDS011;559;48.628;8.924;2023-02-21T11:04:24;6.90;;;2.23;;
1140;SDS011;559;48.628;8.924;2023-02-21T11:06:53;3.40;;;0.70;;
1140;SDS011;559;48.628;8.924;2023-02-21T11:09:29;2.10;;;0.73;;
1140;SDS011;559;48.628;8.924;2023-02-21T11:12:02;1.23;;;0.50;;
1140;SDS011;559;48.628;8.924;2023-02-21T11:14:44;3.57;;;1.00;;
1140;SDS011;559;48.628;8.924;2023-02-21T11:17:29;1.97;;;0.90;;
1140;SDS011;559;48.628;8.924;2023-02-21T11:19:57;0.80;;;0.50;;
1140;SDS011;559;48.628;8.924;2023-02-21T11:22:35;2.80;;;0.70;;
1140;SDS011;559;48.628;8.924;2023-02-21T11:25:03;1.77;;;0.60;;
1140;SDS011;559;48.628;8.924;2023-02-21T11:27:33;1.13;;;0.60;;
1140;SDS011;559;48.628;8.924;2023-02-21T11:30:02;2.03;;;0.70;;
1140;SDS011;559;48.628;8.924;2023-02-21T11:32:39;1.20;;;0.60;;
1140;SDS011;559;48.628;8.924;2023-02-21T11:35:14;1.53;;;0.50;;
1140;SDS011;559;48.628;8.924;2023-02-21T11:37:48;1.33;;;0.80;;
1140;SDS011;559;48.628;8.924;2023-02-21T11:40:29;1.07;;;0.60;;
1140;SDS011;559;48.628;8.924;2023-02-21T11:45:46;1.63;;;1.00;;
1140;SDS011;559;48.628;8.924;2023-02-21T11:48:17;1.13;;;0.60;;
1140;SDS011;559;48.628;8.924;2023-02-21T11:50:45;2.23;;;0.93;;
1140;SDS011;559;48.628;8.924;2023-02-21T11:53:16;2.07;;;0.80;;
1140;SDS011;559;48.628;8.924;2023-02-21T11:55:47;2.87;;;0.77;;
1140;SDS011;559;48.628;8.924;2023-02-21T11:58:23;1.77;;;0.50;;
1140;SDS011;559;48.628;8.924;2023-02-21T12:00:54;1.30;;;0.80;;
1140;SDS011;559;48.628;8.924;2023-02-21T12:03:44;83.03;;;10.67;;
1140;SDS011;559;48.628;8.924;2023-02-21T12:06:18;1.37;;;0.80;;
1140;SDS011;559;48.628;8.924;2023-02-21T12:08:48;2.80;;;0.73;;
1140;SDS011;559;48.628;8.924;2023-02-21T12:14:08;1.00;;;0.50;;
1140;SDS011;559;48.628;8.924;2023-02-21T12:16:45;2.73;;;0.70;;
1140;SDS011;559;48.628;8.924;2023-02-21T12:19:29;5.40;;;1.10;;
1140;SDS011;559;48.628;8.924;2023-02-21T12:22:01;47.47;;;12.67;;
1140;SDS011;559;48.628;8.924;2023-02-21T12:24:35;2.07;;;0.90;;
1140;SDS011;559;48.628;8.924;2023-02-21T12:27:09;21.93;;;8.40;;
1140;SDS011;559;48.628;8.924;2023-02-21T12:32:35;4.33;;;0.87;;
1140;SDS011;559;48.628;8.924;2023-02-21T12:35:27;2.70;;;0.70;;
1140;SDS011;559;48.628;8.924;2023-02-21T12:38:03;1.10;;;0.60;;
1140;SDS011;559;48.628;8.924;2023-02-21T12:40:33;3.63;;;0.70;;
1140;SDS011;559;48.628;8.924;2023-02-21T12:43:07;1.53;;;0.50;;
1140;SDS011;559;48.628;8.924;2023-02-21T12:45:44;2.23;;;0.70;;
1140;SDS011;559;48.628;8.924;2023-02-21T12:48:21;1.20;;;0.70;;
1140;SDS011;559;48.628;8.924;2023-02-21T12:50:53;2.10;;;0.80;;
1140;SDS011;559;48.628;8.924;2023-02-21T12:53:23;2.30;;;0.70;;
1140;SDS011;559;48.628;8.924;2023-02-21T12:55:54;5.33;;;0.67;;
1140;SDS011;559;48.628;8.924;2023-02-21T12:58:25;1.00;;;0.50;;
1140;SDS011;559;48.628;8.924;2023-02-21T13:00:56;0.90;;;0.60;;
1140;SDS011;559;48.628;8.924;2023-02-21T13:03:29;2.80;;;0.80;;
1140;SDS011;559;48.628;8.924;2023-02-21T13:06:01;1.20;;;0.90;;
1140;SDS011;559;48.628;8.924;2023-02-21T13:08:31;15.73;;;4.77;;
1140;SDS011;559;48.628;8.924;2023-02-21T13:11:02;26.50;;;6.57;;
1140;SDS011;559;48.628;8.924;2023-02-21T13:13:33;173.10;;;21.60;;
1140;SDS011;559;48.628;8.924;2023-02-21T13:16:01;6.40;;;1.30;;
1140;SDS011;559;48.628;8.924;2023-02-21T13:18:30;2.70;;;0.83;;
1140;SDS011;559;48.628;8.924;2023-02-21T13:21:01;13.97;;;2.40;;
1140;SDS011;559;48.628;8.924;2023-02-21T13:23:41;1.00;;;0.50;;
1140;SDS011;559;48.628;8.924;2023-02-21T13:26:35;1.30;;;0.47;;
1140;SDS011;559;48.628;8.924;2023-02-21T13:29:10;1.70;;;0.70;;
1140;SDS011;559;48.628;8.924;2023-02-21T13:31:41;1.33;;;0.60;;
1140;SDS011;559;48.628;8.924;2023-02-21T13:34:11;1.20;;;0.70;;
1140;SDS011;559;48.628;8.924;2023-02-21T13:36:40;1.20;;;0.70;;
1140;SDS011;559;48.628;8.924;2023-02-21T13:39:10;0.90;;;0.50;;
1140;SDS011;559;48.628;8.924;2023-02-21T13:41:38;1.67;;;0.60;;
1140;SDS011;559;48.628;8.924;2023-02-21T13:44:07;1.03;;;0.60;;
1140;SDS011;559;48.628;8.924;2023-02-21T13:46:59;1.10;;;0.70;;
1140;SDS011;559;48.628;8.924;2023-02-21T13:49:40;1.47;;;0.50;;
1140;SDS011;559;48.628;8.924;2023-02-21T13:52:24;2.03;;;0.60;;
1140;SDS011;559;48.628;8.924;2023-02-21T13:57:50;0.90;;;0.40;;
1140;SDS011;559;48.628;8.924;2023-02-21T14:00:49;2.43;;;1.33;;
1140;SDS011;559;48.628;8.924;2023-02-21T14:03:29;0.90;;;0.40;;
1140;SDS011;559;48.628;8.924;2023-02-21T14:06:21;0.93;;;0.43;;
1140;SDS011;559;48.628;8.924;2023-02-21T14:11:20;1.00;;;0.50;;
1140;SDS011;559;48.628;8.924;2023-02-21T14:13:49;9.70;;;1.60;;
1140;SDS011;559;48.628;8.924;2023-02-21T14:16:17;0.80;;;0.40;;
1140;SDS011;559;48.628;8.924;2023-02-21T14:26:45;0.90;;;0.50;;
1140;SDS011;559;48.628;8.924;2023-02-21T16:06:28;5.47;;;1.30;;
1140;SDS011;559;48.628;8.924;2023-02-21T16:09:00;2.50;;;1.33;;
1140;SDS011;559;48.628;8.924;2023-02-21T17:36:17;10.02;;;3.67;;
1140;SDS011;559;48.628;8.924;2023-02-21T17:55:59;40.45;;;21.52;;
1140;SDS011;559;48.628;8.924;2023-02-21T17:58:25;26.15;;;15.55;;
1140;SDS011;559;48.628;8.924;2023-02-21T18:00:54;16.60;;;12.80;;
1140;SDS011;559;48.628;8.924;2023-02-21T18:03:20;15.50;;;14.00;;
1140;SDS011;559;48.628;8.924;2023-02-21T18:05:47;12.60;;;11.70;;
1140;SDS011;559;48.628;8.924;2023-02-21T18:08:14;11.95;;;10.95;;
1140;SDS011;559;48.628;8.924;2023-02-21T18:10:42;13.00;;;12.30;;
1140;SDS011;559;48.628;8.924;2023-02-21T18:13:11;16.75;;;15.95;;
1140;SDS011;559;48.628;8.924;2023-02-21T18:15:38;28.80;;;26.02;;
1140;SDS011;559;48.628;8.924;2023-02-21T18:18:04;37.10;;;33.35;;
1140;SDS011;559;48.628;8.924;2023-02-21T18:20:31;41.85;;;37.95;;
1140;SDS011;559;48.628;8.924;2023-02-21T18:22:58;42.63;;;39.28;;
1140;SDS011;559;48.628;8.924;2023-02-21T18:25:27;38.75;;;36.25;;
1140;SDS011;559;48.628;8.924;2023-02-21T18:27:53;43.55;;;40.97;;
1140;SDS011;559;48.628;8.924;2023-02-21T18:30:21;45.65;;;42.78;;
1140;SDS011;559;48.628;8.924;2023-02-21T18:32:48;47.28;;;45.20;;
1140;SDS011;559;48.628;8.924;2023-02-21T18:35:15;57.92;;;55.47;;
1140;SDS011;559;48.628;8.924;2023-02-21T18:37:42;67.03;;;63.78;;
1140;SDS011;559;48.628;8.924;2023-02-21T18:40:10;82.53;;;78.70;;
1140;SDS011;559;48.628;8.924;2023-02-21T18:42:39;85.50;;;81.50;;
1140;SDS011;559;48.628;8.924;2023-02-21T18:45:06;103.13;;;92.28;;
1140;SDS011;559;48.628;8.924;2023-02-21T18:47:34;92.15;;;89.47;;
1140;SDS011;559;48.628;8.924;2023-02-21T18:50:00;102.75;;;99.57;;
1140;SDS011;559;48.628;8.924;2023-02-21T18:52:27;106.93;;;104.00;;
1140;SDS011;559;48.628;8.924;2023-02-21T18:54:54;104.25;;;101.25;;
1140;SDS011;559;48.628;8.924;2023-02-21T18:57:27;107.45;;;104.25;;
1140;SDS011;559;48.628;8.924;2023-02-21T18:59:53;124.05;;;119.75;;
1140;SDS011;559;48.628;8.924;2023-02-21T19:02:20;119.97;;;116.38;;
1140;SDS011;559;48.628;8.924;2023-02-21T19:04:48;125.10;;;120.80;;